createdAt,value
2023-05-16T00:02:27.257Z,21.25
2023-05-16T00:04:56.521Z,21.26
2023-05-16T00:07:25.068Z,21.25
2023-05-16T00:09:53.602Z,21.25
2023-05-16T00:12:22.979Z,21.25
2023-05-16T00:14:51.953Z,21.24
2023-05-16T00:17:21.331Z,21.25
2023-05-16T00:19:50.714Z,21.25
2023-05-16T00:22:20.054Z,21.24
2023-05-16T00:24:49.279Z,21.24
2023-05-16T00:27:18.539Z,21.25
2023-05-16T00:29:47.771Z,21.25
2023-05-16T00:32:16.767Z,21.24
2023-05-16T00:34:45.504Z,21.24
2023-05-16T00:37:15.652Z,21.24
2023-05-16T00:39:44.529Z,21.24
2023-05-16T00:42:14.626Z,21.24
2023-05-16T00:44:43.698Z,21.23
2023-05-16T00:47:12.926Z,21.23
2023-05-16T00:49:41.491Z,21.24
2023-05-16T00:52:09.666Z,21.22
2023-05-16T00:54:38.527Z,21.22
2023-05-16T00:57:07.364Z,21.22
2023-05-16T00:59:37.987Z,21.22
2023-05-16T01:02:07.023Z,21.22
2023-05-16T01:04:35.954Z,21.21
2023-05-16T01:07:04.832Z,21.20
2023-05-16T01:09:35.521Z,21.20
2023-05-16T01:12:05.246Z,21.20
2023-05-16T01:14:34.598Z,21.19
2023-05-16T01:17:03.828Z,21.18
2023-05-16T01:19:32.684Z,21.18
2023-05-16T01:22:00.901Z,21.18
2023-05-16T01:24:29.133Z,21.17
2023-05-16T01:26:57.927Z,21.18
2023-05-16T01:29:27.746Z,21.17
2023-05-16T01:31:56.667Z,21.16
2023-05-16T01:34:25.222Z,21.16
2023-05-16T01:36:55.488Z,21.16
2023-05-16T01:39:23.339Z,21.15
2023-05-16T01:41:51.297Z,21.14
2023-05-16T01:44:21.402Z,21.14
2023-05-16T01:46:50.415Z,21.12
2023-05-16T01:49:18.709Z,21.13
2023-05-16T01:51:47.902Z,21.12
2023-05-16T01:54:16.741Z,21.13
2023-05-16T01:56:46.049Z,21.12
2023-05-16T01:59:14.976Z,21.11
2023-05-16T02:01:43.829Z,21.12
2023-05-16T02:04:12.934Z,21.07
2023-05-16T02:06:42.894Z,21.09
2023-05-16T02:09:10.936Z,21.09
2023-05-16T02:11:41.836Z,21.09
2023-05-16T02:14:10.200Z,21.09
2023-05-16T02:16:39.297Z,21.08
2023-05-16T02:19:08.415Z,21.08
2023-05-16T02:21:36.688Z,21.08
2023-05-16T02:24:06.481Z,21.07
2023-05-16T02:26:34.715Z,21.07
2023-05-16T02:29:04.119Z,21.07
2023-05-16T02:31:33.615Z,21.07
2023-05-16T02:34:02.745Z,21.08
2023-05-16T02:36:31.420Z,21.06
2023-05-16T02:39:00.727Z,21.07
2023-05-16T02:41:29.685Z,21.06
2023-05-16T02:43:58.715Z,21.06
2023-05-16T02:46:27.852Z,21.07
2023-05-16T02:48:57.088Z,21.07
2023-05-16T02:51:25.167Z,21.07
2023-05-16T02:53:53.187Z,21.08
2023-05-16T02:56:22.596Z,21.07
2023-05-16T02:58:51.962Z,21.08
2023-05-16T03:01:20.876Z,21.07
2023-05-16T03:03:49.835Z,21.06
2023-05-16T03:06:18.823Z,21.05
2023-05-16T03:08:47.326Z,21.06
2023-05-16T03:11:17.774Z,21.05
2023-05-16T03:13:48.025Z,21.05
2023-05-16T03:16:18.007Z,21.05
2023-05-16T03:18:47.502Z,21.05
2023-05-16T03:21:16.598Z,21.04
2023-05-16T03:23:45.999Z,21.04
2023-05-16T03:26:14.878Z,21.04
2023-05-16T03:28:44.184Z,21.04
2023-05-16T03:31:13.141Z,21.04
2023-05-16T03:33:42.931Z,21.04
2023-05-16T03:36:11.198Z,21.04
2023-05-16T03:38:39.742Z,21.04
2023-05-16T03:41:08.100Z,21.03
2023-05-16T03:43:36.867Z,21.02
2023-05-16T03:46:06.037Z,21.02
2023-05-16T03:48:35.248Z,21.03
2023-05-16T03:51:04.055Z,21.03
2023-05-16T03:53:32.947Z,21.02
2023-05-16T03:56:01.917Z,21.02
2023-05-16T03:58:31.393Z,21.02
2023-05-16T04:01:00.709Z,21.01
2023-05-16T04:03:30.132Z,21.02
2023-05-16T04:05:59.118Z,21.03
2023-05-16T04:08:28.358Z,21.03
2023-05-16T04:10:57.757Z,21.03
2023-05-16T04:13:26.584Z,21.03
2023-05-16T04:15:55.887Z,21.04
2023-05-16T04:18:24.895Z,21.05
2023-05-16T04:20:53.056Z,21.05
2023-05-16T04:23:21.891Z,21.06
2023-05-16T04:25:50.954Z,21.07
2023-05-16T04:28:19.730Z,21.08
2023-05-16T04:30:48.952Z,21.07
2023-05-16T04:33:18.324Z,21.08
2023-05-16T04:35:47.653Z,21.09
2023-05-16T04:38:16.916Z,21.09
2023-05-16T04:40:45.752Z,21.10
2023-05-16T04:43:14.259Z,21.10
2023-05-16T04:45:43.526Z,21.12
2023-05-16T04:48:12.284Z,21.09
2023-05-16T04:50:41.667Z,21.12
2023-05-16T04:53:10.481Z,21.14
2023-05-16T04:55:39.855Z,21.13
2023-05-16T04:58:09.101Z,21.14
2023-05-16T05:00:38.068Z,21.15
2023-05-16T05:03:06.801Z,21.16
2023-05-16T05:05:35.605Z,21.18
2023-05-16T05:08:04.619Z,21.20
2023-05-16T05:10:34.068Z,21.22
2023-05-16T05:13:03.471Z,21.25
2023-05-16T05:15:32.300Z,21.26
2023-05-16T05:18:01.923Z,21.28
2023-05-16T05:20:31.468Z,21.29
2023-05-16T05:23:00.375Z,21.29
2023-05-16T05:25:29.621Z,21.30
2023-05-16T05:27:58.033Z,21.30
2023-05-16T05:30:26.960Z,21.34
2023-05-16T05:32:55.732Z,21.34
2023-05-16T05:35:25.332Z,21.34
2023-05-16T05:37:54.467Z,21.35
2023-05-16T05:40:22.980Z,21.36
2023-05-16T05:42:51.591Z,21.35
2023-05-16T05:45:20.835Z,21.36
2023-05-16T05:47:50.331Z,21.37
2023-05-16T05:50:19.857Z,21.37
2023-05-16T05:52:49.011Z,21.38
2023-05-16T05:55:17.686Z,21.38
2023-05-16T05:57:46.966Z,21.40
2023-05-16T06:00:16.522Z,21.41
2023-05-16T06:02:45.674Z,21.40
2023-05-16T06:05:15.131Z,21.42
2023-05-16T06:07:43.639Z,21.43
2023-05-16T06:10:12.228Z,21.43
2023-05-16T06:12:41.092Z,21.45
2023-05-16T06:15:11.387Z,21.45
2023-05-16T06:17:41.670Z,21.46
2023-05-16T06:20:10.615Z,21.47
2023-05-16T06:22:39.463Z,21.47
2023-05-16T06:25:08.730Z,21.48
2023-05-16T06:27:37.961Z,21.51
2023-05-16T06:30:06.832Z,21.53
2023-05-16T06:32:36.126Z,21.56
2023-05-16T06:35:05.325Z,21.59
2023-05-16T06:37:35.098Z,21.61
2023-05-16T06:40:04.401Z,21.63
2023-05-16T06:42:33.276Z,21.63
2023-05-16T06:45:02.532Z,21.65
2023-05-16T06:47:31.555Z,21.66
2023-05-16T06:50:01.177Z,21.66
2023-05-16T06:52:30.553Z,21.65
2023-05-16T06:54:59.837Z,21.65
2023-05-16T06:57:28.862Z,21.65
2023-05-16T06:59:58.248Z,21.66
2023-05-16T07:02:27.778Z,21.67
2023-05-16T07:04:57.287Z,21.69
2023-05-16T07:07:26.575Z,21.69
2023-05-16T07:09:56.086Z,21.71
2023-05-16T07:12:25.023Z,21.72
2023-05-16T07:14:54.483Z,21.74
2023-05-16T07:17:23.928Z,21.76
2023-05-16T07:19:53.788Z,21.79
2023-05-16T07:22:22.751Z,21.83
2023-05-16T07:24:51.725Z,21.86
2023-05-16T07:27:23.344Z,21.91
2023-05-16T07:29:52.515Z,21.92
2023-05-16T07:32:22.054Z,21.95
2023-05-16T07:34:52.854Z,21.97
2023-05-16T07:37:22.144Z,22.02
2023-05-16T07:39:51.518Z,22.09
2023-05-16T07:42:20.457Z,22.19
2023-05-16T07:44:49.919Z,22.33
2023-05-16T07:47:18.922Z,22.45
2023-05-16T07:49:49.486Z,22.50
2023-05-16T07:52:19.809Z,22.57
2023-05-16T07:54:49.198Z,22.62
2023-05-16T07:57:18.499Z,22.65
2023-05-16T07:59:53.303Z,22.62
2023-05-16T08:02:22.299Z,22.69
2023-05-16T08:04:51.075Z,22.70
2023-05-16T08:07:20.033Z,22.80
2023-05-16T08:09:48.832Z,22.91
2023-05-16T08:12:32.190Z,23.07
2023-05-16T08:15:12.399Z,23.07
2023-05-16T08:17:45.415Z,22.97
2023-05-16T08:20:14.873Z,22.87
2023-05-16T08:22:43.681Z,22.79
2023-05-16T08:25:12.929Z,22.73
2023-05-16T08:27:41.721Z,22.73
2023-05-16T08:30:10.688Z,22.78
2023-05-16T08:32:40.275Z,23.02
2023-05-16T08:35:09.778Z,23.58
2023-05-16T08:37:38.744Z,24.22
2023-05-16T08:40:08.464Z,24.90
2023-05-16T08:42:38.034Z,25.52
2023-05-16T08:45:07.152Z,26.04
2023-05-16T08:47:35.624Z,26.57
2023-05-16T08:50:04.557Z,27.06
2023-05-16T08:52:33.681Z,27.51
2023-05-16T08:57:50.106Z,28.44
2023-05-16T09:00:19.489Z,28.78
2023-05-16T09:02:48.855Z,28.86
2023-05-16T09:05:17.612Z,29.01
2023-05-16T09:07:46.560Z,29.26
2023-05-16T09:10:15.606Z,29.36
2023-05-16T09:12:44.898Z,29.65
2023-05-16T09:15:14.175Z,29.82
2023-05-16T09:17:46.175Z,29.69
2023-05-16T09:20:15.239Z,29.91
2023-05-16T09:22:44.512Z,30.30
2023-05-16T09:25:25.568Z,30.69
2023-05-16T09:27:59.409Z,31.12
2023-05-16T09:30:28.363Z,31.48
2023-05-16T09:32:57.524Z,31.80
2023-05-16T09:35:39.763Z,32.09
2023-05-16T09:38:12.444Z,32.42
2023-05-16T09:40:41.666Z,32.69
2023-05-16T09:43:10.620Z,32.98
2023-05-16T09:45:39.869Z,33.12
2023-05-16T09:48:09.314Z,32.84
2023-05-16T09:50:38.622Z,32.10
2023-05-16T09:53:06.970Z,31.29
2023-05-16T09:55:36.571Z,30.50
2023-05-16T09:58:06.104Z,29.75
2023-05-16T10:00:35.065Z,29.33
2023-05-16T10:03:05.917Z,29.06
2023-05-16T10:05:35.753Z,29.50
2023-05-16T10:08:05.142Z,30.15
2023-05-16T10:10:34.618Z,30.77
2023-05-16T10:13:03.939Z,31.17
2023-05-16T10:15:32.722Z,31.66
2023-05-16T10:18:01.951Z,31.42
2023-05-16T10:20:31.588Z,30.94
2023-05-16T10:23:00.178Z,31.04
2023-05-16T10:25:29.011Z,31.61
2023-05-16T10:27:58.364Z,32.23
2023-05-16T10:30:27.789Z,32.86
2023-05-16T10:32:57.695Z,33.44
2023-05-16T10:35:26.871Z,33.93
2023-05-16T10:37:56.352Z,33.75
2023-05-16T10:40:25.696Z,33.80
2023-05-16T10:42:55.001Z,33.38
2023-05-16T10:45:23.919Z,32.80
2023-05-16T10:47:52.857Z,32.24
2023-05-16T10:50:22.286Z,31.77
2023-05-16T10:52:51.168Z,31.17
2023-05-16T10:55:20.565Z,30.51
2023-05-16T10:57:49.936Z,29.91
2023-05-16T11:00:19.268Z,29.35
2023-05-16T11:02:48.775Z,29.37
2023-05-16T11:05:18.172Z,30.21
2023-05-16T11:07:47.387Z,31.23
2023-05-16T11:10:16.841Z,31.56
2023-05-16T11:12:46.308Z,31.22
2023-05-16T11:15:15.776Z,30.59
2023-05-16T11:17:46.217Z,30.12
2023-05-16T11:20:15.851Z,29.91
2023-05-16T11:22:46.184Z,29.43
2023-05-16T11:25:15.025Z,28.87
2023-05-16T11:27:44.067Z,28.34
2023-05-16T11:30:12.936Z,28.21
2023-05-16T11:32:41.756Z,27.91
2023-05-16T11:35:12.207Z,27.61
2023-05-16T11:37:43.778Z,27.53
2023-05-16T11:40:12.503Z,27.80
2023-05-16T11:42:40.705Z,27.70
2023-05-16T11:45:10.137Z,27.41
2023-05-16T11:47:39.213Z,27.02
2023-05-16T11:50:08.624Z,26.62
2023-05-16T11:52:37.471Z,26.25
2023-05-16T11:55:06.439Z,25.93
2023-05-16T11:57:35.594Z,25.69
2023-05-16T12:00:04.292Z,25.53
2023-05-16T12:02:33.744Z,25.38
2023-05-16T12:05:02.678Z,25.28
2023-05-16T12:07:33.794Z,25.22
2023-05-16T12:10:03.217Z,25.17
2023-05-16T12:12:32.545Z,25.12
2023-05-16T12:15:01.802Z,25.08
2023-05-16T12:17:30.583Z,24.98
2023-05-16T12:19:59.848Z,24.87
2023-05-16T12:22:28.673Z,24.75
2023-05-16T12:24:57.201Z,24.62
2023-05-16T12:27:25.984Z,24.49
2023-05-16T12:29:55.440Z,24.36
2023-05-16T12:32:25.244Z,24.24
2023-05-16T12:34:54.511Z,24.10
2023-05-16T12:37:23.321Z,24.00
2023-05-16T12:39:52.125Z,23.88
2023-05-16T12:42:21.341Z,23.80
2023-05-16T12:44:51.363Z,23.73
2023-05-16T12:47:20.878Z,23.66
2023-05-16T12:49:50.409Z,23.62
2023-05-16T12:52:19.539Z,23.56
2023-05-16T12:54:48.327Z,23.52
2023-05-16T12:57:17.762Z,23.47
2023-05-16T12:59:46.749Z,23.47
2023-05-16T13:02:16.099Z,23.56
2023-05-16T13:04:45.100Z,23.64
2023-05-16T13:07:14.348Z,23.79
2023-05-16T13:09:44.005Z,24.06
2023-05-16T13:12:12.642Z,24.44
2023-05-16T13:14:43.175Z,25.23
2023-05-16T13:17:12.737Z,25.35
2023-05-16T13:19:43.185Z,25.34
2023-05-16T13:22:13.047Z,26.01
2023-05-16T13:24:43.462Z,26.58
2023-05-16T13:27:13.827Z,26.41
2023-05-16T13:29:43.160Z,26.07
2023-05-16T13:32:12.380Z,25.69
2023-05-16T13:34:40.646Z,25.37
2023-05-16T13:37:10.089Z,25.07
2023-05-16T13:39:38.662Z,24.80
2023-05-16T13:42:07.172Z,24.57
2023-05-16T13:44:35.924Z,24.36
2023-05-16T13:47:04.860Z,24.19
2023-05-16T13:49:33.953Z,24.09
2023-05-16T13:52:03.301Z,24.13
2023-05-16T13:54:32.241Z,24.17
2023-05-16T13:57:02.596Z,24.15
2023-05-16T14:00:02.168Z,24.10
2023-05-16T14:02:21.308Z,24.01
2023-05-16T14:04:50.562Z,23.92
2023-05-16T14:07:19.469Z,23.80
2023-05-16T14:09:48.397Z,23.71
2023-05-16T14:12:17.724Z,23.68
2023-05-16T14:14:46.665Z,23.89
2023-05-16T14:17:16.082Z,24.18
2023-05-16T14:19:45.000Z,24.32
2023-05-16T14:22:14.439Z,24.27
2023-05-16T14:24:43.897Z,24.12
2023-05-16T14:27:12.910Z,23.97
2023-05-16T14:29:42.242Z,23.81
2023-05-16T14:32:11.280Z,23.67
2023-05-16T14:34:40.822Z,23.57
2023-05-16T14:37:10.296Z,23.52
2023-05-16T14:39:38.974Z,23.49
2023-05-16T14:42:08.855Z,23.45
2023-05-16T14:44:38.547Z,23.40
2023-05-16T14:47:07.931Z,23.39
2023-05-16T14:49:37.008Z,23.38
2023-05-16T14:52:05.786Z,23.35
2023-05-16T14:54:35.259Z,23.28
2023-05-16T14:57:04.616Z,23.21
2023-05-16T14:59:33.594Z,23.16
2023-05-16T15:02:02.656Z,23.10
2023-05-16T15:04:31.719Z,23.05
2023-05-16T15:07:01.330Z,23.01
2023-05-16T15:09:30.790Z,22.99
2023-05-16T15:11:59.667Z,22.99
2023-05-16T15:14:28.923Z,22.98
2023-05-16T15:16:57.698Z,22.96
2023-05-16T15:19:26.690Z,22.93
2023-05-16T15:21:55.337Z,22.91
2023-05-16T15:24:23.642Z,22.89
2023-05-16T15:26:52.974Z,22.86
2023-05-16T15:29:21.835Z,22.84
2023-05-16T15:31:50.751Z,22.80
2023-05-16T15:34:20.148Z,22.77
2023-05-16T15:36:49.415Z,22.73
2023-05-16T15:39:18.734Z,22.71
2023-05-16T15:42:08.501Z,22.69
2023-05-16T15:44:36.181Z,22.69
2023-05-16T15:47:04.186Z,22.69
2023-05-16T15:49:33.240Z,22.70
2023-05-16T15:52:02.191Z,22.70
2023-05-16T15:54:31.235Z,22.72
2023-05-16T15:57:00.558Z,22.72
2023-05-16T15:59:29.907Z,22.76
2023-05-16T16:01:59.345Z,22.83
2023-05-16T16:04:28.638Z,22.86
2023-05-16T16:06:58.009Z,22.91
2023-05-16T16:09:38.577Z,22.96
2023-05-16T16:12:19.010Z,22.99
2023-05-16T16:14:48.300Z,22.99
2023-05-16T16:17:17.627Z,22.95
2023-05-16T16:19:46.960Z,22.93
2023-05-16T16:22:16.297Z,22.88
2023-05-16T16:24:47.859Z,22.83
2023-05-16T16:27:16.034Z,22.77
2023-05-16T16:29:45.405Z,22.73
2023-05-16T16:32:14.964Z,22.69
2023-05-16T16:34:44.395Z,22.64
2023-05-16T16:37:13.822Z,22.60
2023-05-16T16:39:42.830Z,22.54
2023-05-16T16:42:11.746Z,22.48
2023-05-16T16:44:41.166Z,22.43
2023-05-16T16:47:10.780Z,22.40
2023-05-16T16:49:40.280Z,22.36
2023-05-16T16:52:09.847Z,22.32
2023-05-16T16:54:39.178Z,22.30
2023-05-16T16:57:08.457Z,22.29
2023-05-16T16:59:37.406Z,22.27
2023-05-16T17:02:06.733Z,22.27
2023-05-16T17:04:36.175Z,22.24
2023-05-16T17:07:05.553Z,22.24
2023-05-16T17:09:34.853Z,22.22
2023-05-16T17:12:03.773Z,22.23
2023-05-16T17:14:33.300Z,22.23
2023-05-16T17:17:02.825Z,22.23
2023-05-16T17:19:31.752Z,22.21
2023-05-16T17:22:01.134Z,22.22
2023-05-16T17:24:30.020Z,22.20
2023-05-16T17:26:58.927Z,22.19
2023-05-16T17:29:28.235Z,22.15
2023-05-16T17:31:57.026Z,22.13
2023-05-16T17:34:25.891Z,22.12
2023-05-16T17:36:54.577Z,22.11
2023-05-16T17:39:24.822Z,22.09
2023-05-16T17:41:56.158Z,22.07
2023-05-16T17:44:27.528Z,22.05
2023-05-16T17:46:58.848Z,22.02
2023-05-16T17:49:30.199Z,22.01
2023-05-16T17:52:01.802Z,21.99
2023-05-16T17:54:31.555Z,21.96
2023-05-16T17:57:01.632Z,21.94
2023-05-16T17:59:33.202Z,21.92
2023-05-16T18:02:02.860Z,21.91
2023-05-16T18:04:31.193Z,21.89
2023-05-16T18:07:00.149Z,21.89
2023-05-16T18:09:29.486Z,21.86
2023-05-16T18:11:58.902Z,21.86
2023-05-16T18:14:28.302Z,21.83
2023-05-16T18:16:57.115Z,21.82
2023-05-16T18:19:26.501Z,21.79
2023-05-16T18:21:56.019Z,21.78
2023-05-16T18:24:25.004Z,21.79
2023-05-16T18:26:54.507Z,21.78
2023-05-16T18:29:23.681Z,21.78
2023-05-16T18:31:52.694Z,21.77
2023-05-16T18:34:22.126Z,21.77
2023-05-16T18:36:50.943Z,21.77
2023-05-16T18:39:19.928Z,21.76
2023-05-16T18:41:49.456Z,21.76
2023-05-16T18:44:18.879Z,21.77
2023-05-16T18:46:48.192Z,21.77
2023-05-16T18:49:17.612Z,21.76
2023-05-16T18:51:46.336Z,21.74
2023-05-16T18:54:15.011Z,21.72
2023-05-16T18:56:43.927Z,21.73
2023-05-16T18:59:12.851Z,21.71
2023-05-16T19:01:42.248Z,21.69
2023-05-16T19:04:11.424Z,21.67
2023-05-16T19:06:40.301Z,21.66
2023-05-16T19:09:09.132Z,21.64
2023-05-16T19:11:38.150Z,21.63
2023-05-16T19:14:07.005Z,21.62
2023-05-16T19:16:36.382Z,21.59
2023-05-16T19:19:05.377Z,21.58
2023-05-16T19:21:34.877Z,21.56
2023-05-16T19:24:04.305Z,21.55
2023-05-16T19:26:33.594Z,21.52
2023-05-16T19:29:02.997Z,21.51
2023-05-16T19:31:31.956Z,21.50
2023-05-16T19:34:01.322Z,21.48
2023-05-16T19:36:30.310Z,21.46
2023-05-16T19:38:59.460Z,21.44
2023-05-16T19:41:27.866Z,21.44
2023-05-16T19:43:57.351Z,21.42
2023-05-16T19:46:27.060Z,21.41
2023-05-16T19:48:56.665Z,21.41
2023-05-16T19:51:40.196Z,21.39
2023-05-16T19:54:11.738Z,21.38
2023-05-16T19:56:42.197Z,21.38
2023-05-16T19:59:11.505Z,21.36
2023-05-16T20:04:28.882Z,21.35
2023-05-16T20:06:58.468Z,21.34
2023-05-16T20:09:27.892Z,21.33
2023-05-16T20:11:56.850Z,21.32
2023-05-16T20:14:26.221Z,21.31
2023-05-16T20:16:55.640Z,21.30
2023-05-16T20:19:24.721Z,21.30
2023-05-16T20:21:54.006Z,21.28
2023-05-16T20:24:22.636Z,21.28
2023-05-16T20:26:51.936Z,21.27
2023-05-16T20:29:20.813Z,21.26
2023-05-16T20:31:49.848Z,21.25
2023-05-16T20:34:19.344Z,21.25
2023-05-16T20:36:48.750Z,21.23
2023-05-16T20:39:18.287Z,21.23
2023-05-16T20:41:47.901Z,21.22
2023-05-16T20:44:17.459Z,21.21
2023-05-16T20:46:46.787Z,21.20
2023-05-16T20:49:15.592Z,21.20
2023-05-16T20:51:45.020Z,21.19
2023-05-16T20:54:14.366Z,21.18
2023-05-16T20:56:43.926Z,21.18
2023-05-16T20:59:13.104Z,21.16
2023-05-16T21:01:42.573Z,21.16
2023-05-16T21:04:11.861Z,21.14
2023-05-16T21:06:41.313Z,21.14
2023-05-16T21:09:10.627Z,21.13
2023-05-16T21:11:39.620Z,21.12
2023-05-16T21:14:08.344Z,21.11
2023-05-16T21:16:37.901Z,21.11
2023-05-16T21:19:08.263Z,21.11
2023-05-16T21:21:37.199Z,21.09
2023-05-16T21:24:06.166Z,21.09
2023-05-16T21:26:35.014Z,21.08
2023-05-16T21:29:03.812Z,21.06
2023-05-16T21:31:32.719Z,21.06
2023-05-16T21:34:02.044Z,21.05
2023-05-16T21:36:31.059Z,21.05
2023-05-16T21:38:59.848Z,21.02
2023-05-16T21:41:28.620Z,21.01
2023-05-16T21:43:57.848Z,21.02
2023-05-16T21:46:27.075Z,21.02
2023-05-16T21:48:56.163Z,21.00
2023-05-16T21:51:24.938Z,21.00
2023-05-16T21:53:54.393Z,21.00
2023-05-16T21:56:23.854Z,20.99
2023-05-16T21:58:52.668Z,20.97
2023-05-16T22:01:21.548Z,20.96
2023-05-16T22:03:51.049Z,20.96
2023-05-16T22:06:20.233Z,20.95
2023-05-16T22:08:48.895Z,20.94
2023-05-16T22:11:17.813Z,20.93
2023-05-16T22:13:47.370Z,20.92
2023-05-16T22:16:16.291Z,20.92
2023-05-16T22:18:45.729Z,20.92
2023-05-16T22:21:15.194Z,20.90
2023-05-16T22:23:44.157Z,20.90
2023-05-16T22:26:13.476Z,20.89
2023-05-16T22:28:43.069Z,20.89
2023-05-16T22:31:12.076Z,20.87
2023-05-16T22:33:41.083Z,20.87
2023-05-16T22:36:09.272Z,20.87
2023-05-16T22:38:38.630Z,20.86
2023-05-16T22:41:07.996Z,20.84
2023-05-16T22:43:37.614Z,20.85
2023-05-16T22:46:07.119Z,20.85
2023-05-16T22:48:36.585Z,20.83
2023-05-16T22:51:05.944Z,20.82
2023-05-16T22:53:34.917Z,20.82
2023-05-16T22:56:03.556Z,20.82
2023-05-16T22:58:32.390Z,20.82
2023-05-16T23:01:01.304Z,20.81
2023-05-16T23:03:30.389Z,20.80
2023-05-16T23:05:59.843Z,20.79
2023-05-16T23:08:29.310Z,20.78
2023-05-16T23:10:58.676Z,20.77
2023-05-16T23:13:27.603Z,20.77
2023-05-16T23:15:56.409Z,20.76
2023-05-16T23:18:25.767Z,20.74
2023-05-16T23:20:54.794Z,20.74
2023-05-16T23:23:24.268Z,20.73
2023-05-16T23:25:53.678Z,20.72
2023-05-16T23:28:22.626Z,20.72
2023-05-16T23:30:51.814Z,20.72
2023-05-16T23:33:20.652Z,20.72
2023-05-16T23:35:50.079Z,20.71
2023-05-16T23:38:18.926Z,20.71
2023-05-16T23:40:48.367Z,20.69
2023-05-16T23:43:17.811Z,20.69
2023-05-16T23:45:47.216Z,20.68
2023-05-16T23:48:16.797Z,20.68
2023-05-16T23:50:49.718Z,20.67
2023-05-16T23:53:19.157Z,20.66
2023-05-16T23:55:48.230Z,20.66
2023-05-16T23:58:17.644Z,20.65
